Ming Yang — HORH — position and weather

sailwx.info

Track history (hours):
 
Tides and Currents Weather Stations Pressure Air Temp Water Temp Dewpoint Dewpoint Depression Visibility Wind Speed Wind Dir Waves Ship Positions

Ming Yang

Last reported at 2017-Nov-16 19:42 UTC. Time now 2017-Nov-18 04:33 UTC.
Position N 31°03' E 122°13'.

Length 80 m; draft 4.8 m.

Type: Cargo ship. MMSI: 356216000.

Date/timePositionNaut miles runAvg speedWind from/ knotsBaromVisibWave heightAir tempDewpointWater temp
2017-Nov-16 19:42N 31°03' E 122°13'3 9.3
2017-Nov-16 19:23N 31°03' E 122°10'10 8.0
2017-Nov-16 18:11N 31°06' E 121°59'2 9.9
2017-Nov-16 18:00N 31°07' E 121°57'5 9.6
2017-Nov-16 17:30N 31°09' E 121°52'4 8.8
2017-Nov-16 17:00N 31°12' E 121°49'4 8.1
2017-Nov-16 16:30N 31°15' E 121°46'4 7.6
2017-Nov-16 16:00N 31°18' E 121°43'3 6.5
2017-Nov-16 15:30N 31°21' E 121°40'3 6.3
2017-Nov-16 15:00N 31°22' E 121°37'3 6.6
2017-Nov-16 14:30N 31°24' E 121°33'3 6.0
2017-Nov-16 14:00N 31°25' E 121°30'2 4.0
2017-Nov-16 13:30N 31°27' E 121°29'2 3.5
2017-Nov-16 13:00N 31°28' E 121°27'4 8.6
2017-Nov-16 12:30N 31°31' E 121°24'5 9.6
2017-Nov-16 11:59N 31°34' E 121°19'710.7
2017-Nov-16 11:18N 31°39' E 121°13'11 0.2
2017-Nov-14 07:58N 31°46' E 121°03'4 8.2
2017-Nov-14 07:26N 31°43' E 121°07'4 8.2
2017-Nov-14 07:00N 31°41' E 121°11'4 8.4
2017-Nov-14 06:30N 31°38' E 121°15'4 8.6
2017-Nov-14 06:00N 31°35' E 121°18'4 8.8
2017-Nov-14 05:30N 31°32' E 121°21'5 9.4
2017-Nov-14 05:00N 31°30' E 121°26'5 9.4
2017-Nov-14 04:30N 31°26' E 121°30'4 8.0
2017-Nov-14 04:00N 31°24' E 121°34'5 9.7
2017-Nov-14 03:30N 31°22' E 121°39'5 8.9
2017-Nov-14 03:00N 31°19' E 121°43'610.7
2017-Nov-14 02:29N 31°15' E 121°47'710.9
2017-Nov-14 01:50N 31°10' E 121°53'410.8
2017-Nov-14 01:26N 31°07' E 121°57'510.8
2017-Nov-14 01:00N 31°05' E 122°02'  
Track history (hours):
 
Tides and Currents Weather Stations Pressure Air Temp Water Temp Dewpoint Dewpoint Depression Visibility Wind Speed Wind Dir Waves Ship Positions

Ming Yang

Last reported at 2017-Nov-16 19:42 UTC. Time now 2017-Nov-18 04:33 UTC.
Position N 31°03' E 122°13'.

Length 80 m; draft 4.8 m.

Type: Cargo ship. MMSI: 356216000.

Date/timePositionNaut miles runAvg speedWind from/ knotsBaromVisibWave heightAir tempDewpointWater temp
2017-Nov-16 19:42N 31°03' E 122°13'3 9.3
2017-Nov-16 19:23N 31°03' E 122°10'10 8.0
2017-Nov-16 18:11N 31°06' E 121°59'2 9.9
2017-Nov-16 18:00N 31°07' E 121°57'5 9.6
2017-Nov-16 17:30N 31°09' E 121°52'4 8.8
2017-Nov-16 17:00N 31°12' E 121°49'4 8.1
2017-Nov-16 16:30N 31°15' E 121°46'4 7.6
2017-Nov-16 16:00N 31°18' E 121°43'3 6.5
2017-Nov-16 15:30N 31°21' E 121°40'3 6.3
2017-Nov-16 15:00N 31°22' E 121°37'3 6.6
2017-Nov-16 14:30N 31°24' E 121°33'3 6.0
2017-Nov-16 14:00N 31°25' E 121°30'2 4.0
2017-Nov-16 13:30N 31°27' E 121°29'2 3.5
2017-Nov-16 13:00N 31°28' E 121°27'4 8.6
2017-Nov-16 12:30N 31°31' E 121°24'5 9.6
2017-Nov-16 11:59N 31°34' E 121°19'710.7
2017-Nov-16 11:18N 31°39' E 121°13'11 0.2
2017-Nov-14 07:58N 31°46' E 121°03'4 8.2
2017-Nov-14 07:26N 31°43' E 121°07'4 8.2
2017-Nov-14 07:00N 31°41' E 121°11'4 8.4
2017-Nov-14 06:30N 31°38' E 121°15'4 8.6
2017-Nov-14 06:00N 31°35' E 121°18'4 8.8
2017-Nov-14 05:30N 31°32' E 121°21'5 9.4
2017-Nov-14 05:00N 31°30' E 121°26'5 9.4
2017-Nov-14 04:30N 31°26' E 121°30'4 8.0
2017-Nov-14 04:00N 31°24' E 121°34'5 9.7
2017-Nov-14 03:30N 31°22' E 121°39'5 8.9
2017-Nov-14 03:00N 31°19' E 121°43'610.7
2017-Nov-14 02:29N 31°15' E 121°47'710.9
2017-Nov-14 01:50N 31°10' E 121°53'410.8
2017-Nov-14 01:26N 31°07' E 121°57'510.8
2017-Nov-14 01:00N 31°05' E 122°02'  

Dump ship's entire track history